Time;durP1;ratioP1;P1;durP2;ratioP2;P2;SDS_P1;SDS_P2;PMS_P1;PMS_P2;Temp;Humidity;BMP_temperature;BMP_pressure;BME280_temperature;BME280_humidity;BME280_pressure;Samples;Min_cycle;Max_cycle;Signal;HPM_P1;HPM_P2
2022/01/19 00:01:47;;;;;;;22.53;20.43;;;0.90;99.90;;;;;;5047821;28;20545;-76
2022/01/19 00:04:14;;;;;;;22.57;20.43;;;0.90;99.90;;;;;;5067578;28;20425;-76
2022/01/19 00:06:41;;;;;;;23.20;21.00;;;0.80;99.90;;;;;;5036168;28;20470;-76
2022/01/19 00:09:08;;;;;;;24.07;21.77;;;0.70;99.90;;;;;;5067402;28;20928;-76
2022/01/19 00:11:34;;;;;;;23.60;21.20;;;0.70;99.90;;;;;;5064979;28;20441;-76
2022/01/19 00:14:02;;;;;;;22.00;20.10;;;0.60;99.90;;;;;;5059288;28;20458;-76
2022/01/19 00:16:29;;;;;;;24.43;21.03;;;0.60;99.90;;;;;;5039664;28;20451;-76
2022/01/19 00:18:56;;;;;;;22.87;20.57;;;0.60;99.90;;;;;;5060146;28;20427;-77
2022/01/19 00:21:23;;;;;;;22.30;20.23;;;0.60;99.90;;;;;;5044652;28;20531;-76
2022/01/19 00:23:50;;;;;;;22.67;20.70;;;0.60;99.90;;;;;;5061339;28;20519;-76
2022/01/19 00:26:17;;;;;;;22.50;20.27;;;0.50;99.90;;;;;;5068432;28;20442;-76
2022/01/19 00:28:43;;;;;;;21.70;19.80;;;0.50;99.90;;;;;;5045836;28;20535;-76
2022/01/19 00:31:13;;;;;;;21.97;19.97;;;0.50;99.90;;;;;;5068741;28;20441;-76
2022/01/19 00:33:40;;;;;;;22.60;20.20;;;0.40;99.90;;;;;;5043236;28;20527;-76
2022/01/19 00:36:08;;;;;;;23.60;21.10;;;0.40;99.90;;;;;;5047827;28;20883;-76
2022/01/19 00:38:35;;;;;;;22.30;20.40;;;0.40;99.90;;;;;;5046754;28;20458;-77
2022/01/19 00:41:02;;;;;;;22.60;20.50;;;0.40;99.90;;;;;;5062792;28;20431;-76
2022/01/19 00:43:29;;;;;;;21.67;19.67;;;0.40;99.90;;;;;;5035890;28;20558;-76
2022/01/19 00:45:56;;;;;;;23.40;21.13;;;0.40;99.90;;;;;;5051640;28;20515;-76
2022/01/19 00:48:24;;;;;;;23.50;21.10;;;0.40;99.90;;;;;;5068128;28;20480;-76
2022/01/19 00:50:52;;;;;;;22.83;20.73;;;0.40;99.90;;;;;;5068680;28;20819;-76
2022/01/19 00:53:21;;;;;;;23.07;20.97;;;0.50;99.90;;;;;;5044079;28;20901;-76
2022/01/19 00:55:48;;;;;;;23.03;20.70;;;0.50;99.90;;;;;;5046146;28;20495;-76
2022/01/19 00:58:15;;;;;;;22.63;20.37;;;0.40;99.90;;;;;;5050995;28;20449;-76
2022/01/19 01:00:42;;;;;;;23.33;21.13;;;0.50;99.90;;;;;;5049077;28;20448;-76
2022/01/19 01:03:09;;;;;;;23.50;21.13;;;0.40;99.90;;;;;;5052906;28;20855;-76
2022/01/19 01:05:38;;;;;;;22.50;20.23;;;0.50;99.90;;;;;;5049413;28;20464;-76
2022/01/19 01:08:05;;;;;;;22.77;20.47;;;0.40;99.90;;;;;;5071315;28;20546;-76
2022/01/19 01:10:40;;;;;;;22.10;20.20;;;0.50;99.90;;;;;;5069056;28;20934;-76
2022/01/19 01:13:20;;;;;;;22.60;20.43;;;0.50;99.90;;;;;;5051927;28;20496;-76
2022/01/19 01:15:48;;;;;;;22.53;20.33;;;0.60;99.90;;;;;;5046535;28;21001;-76
2022/01/19 01:18:20;;;;;;;23.50;21.13;;;0.60;99.90;;;;;;5046635;28;20448;-76
2022/01/19 01:20:52;;;;;;;26.77;21.37;;;0.60;99.90;;;;;;5038205;28;20971;-76
2022/01/19 01:23:21;;;;;;;23.47;21.17;;;0.70;99.90;;;;;;5054641;28;20490;-76
2022/01/19 01:25:49;;;;;;;24.80;22.47;;;0.70;99.90;;;;;;5067432;28;20943;-76
2022/01/19 01:28:17;;;;;;;24.93;22.43;;;0.80;99.90;;;;;;5063238;28;20823;-76
2022/01/19 01:30:45;;;;;;;24.90;22.30;;;0.80;99.90;;;;;;5066046;28;20437;-76
2022/01/19 01:33:13;;;;;;;24.90;22.40;;;0.90;99.90;;;;;;5046722;28;20461;-75
2022/01/19 01:35:40;;;;;;;24.43;21.97;;;0.90;99.90;;;;;;5054127;28;20536;-76
2022/01/19 01:38:09;;;;;;;24.80;22.40;;;1.00;99.90;;;;;;5046283;28;20453;-76
2022/01/19 01:40:37;;;;;;;23.07;20.93;;;1.10;99.90;;;;;;5067352;28;20463;-76
2022/01/19 01:43:07;;;;;;;22.57;20.33;;;1.10;99.90;;;;;;5064974;28;20461;-76
2022/01/19 01:45:38;;;;;;;24.77;22.00;;;1.20;99.90;;;;;;5040956;28;20484;-76
2022/01/19 01:48:09;;;;;;;24.50;22.03;;;1.10;99.90;;;;;;5043944;28;20481;-76
2022/01/19 01:53:32;;;;;;;26.30;22.73;;;1.30;99.90;;;;;;5044467;28;20466;-76
2022/01/19 01:56:03;;;;;;;24.57;22.17;;;1.30;99.90;;;;;;5049518;28;20481;-75
2022/01/19 01:58:33;;;;;;;23.87;20.80;;;1.40;99.90;;;;;;5043733;28;20472;-76
2022/01/19 02:01:19;;;;;;;23.83;21.60;;;1.40;99.90;;;;;;5068407;28;20444;-75
2022/01/19 02:03:46;;;;;;;23.90;21.57;;;1.40;99.90;;;;;;5048345;28;20522;-76
2022/01/19 02:09:19;;;;;;;23.13;20.73;;;1.50;99.90;;;;;;5052074;28;20431;-75
2022/01/19 02:23:02;;;;;;;24.10;21.47;;;1.30;99.90;;;;;;5043796;28;20482;-76
2022/01/19 02:25:35;;;;;;;23.67;21.17;;;1.20;99.90;;;;;;5069656;28;21047;-76
2022/01/19 02:36:37;;;;;;;23.53;21.17;;;1.00;99.90;;;;;;5051838;28;20439;-76
2022/01/19 02:41:49;;;;;;;24.37;22.17;;;0.80;99.90;;;;;;5029782;28;20434;-76
2022/01/19 02:44:25;;;;;;;24.30;21.70;;;0.70;99.90;;;;;;5049244;28;20446;-76
2022/01/19 02:49:09;;;;;;;26.97;22.00;;;0.70;99.90;;;;;;5048614;28;20532;-77
2022/01/19 02:49:41;;;;;;;22.63;20.53;;;0.70;99.90;;;;;;5052840;28;20531;-76
2022/01/19 02:52:09;;;;;;;23.60;21.20;;;0.60;99.90;;;;;;5047378;28;20506;-76
2022/01/19 02:54:36;;;;;;;25.53;22.70;;;0.50;99.90;;;;;;5051425;28;20477;-76
2022/01/19 02:57:03;;;;;;;24.73;22.13;;;0.50;99.90;;;;;;5052325;28;20792;-76
2022/01/19 02:59:35;;;;;;;23.87;21.53;;;0.40;99.90;;;;;;5069503;28;20441;-76
2022/01/19 03:10:17;;;;;;;22.40;20.17;;;0.30;99.90;;;;;;5040901;28;20451;-75
2022/01/19 03:12:44;;;;;;;24.13;21.67;;;0.20;99.90;;;;;;5050126;28;20470;-76
2022/01/19 03:15:13;;;;;;;24.13;21.77;;;0.20;99.90;;;;;;5067367;28;20430;-76
2022/01/19 03:17:40;;;;;;;23.30;21.00;;;0.10;99.90;;;;;;5072172;28;20421;-76
2022/01/19 03:20:10;;;;;;;22.50;20.27;;;0.00;99.90;;;;;;5052687;28;20570;-75
2022/01/19 03:22:45;;;;;;;22.97;20.67;;;0.00;99.90;;;;;;5050905;28;20471;-76
2022/01/19 03:25:13;;;;;;;22.83;20.50;;;0.00;99.90;;;;;;5050439;28;20965;-76
2022/01/19 03:27:40;;;;;;;23.37;20.97;;;-0.10;99.90;;;;;;5049248;28;20992;-75
2022/01/19 03:30:09;;;;;;;23.80;21.30;;;-0.10;99.90;;;;;;5049273;28;20534;-75
2022/01/19 03:32:35;;;;;;;24.93;22.30;;;-0.10;99.90;;;;;;5069766;28;20462;-77
2022/01/19 03:35:04;;;;;;;25.17;22.57;;;-0.10;99.90;;;;;;5051632;28;20824;-76
2022/01/19 03:37:31;;;;;;;25.33;22.73;;;-0.10;99.90;;;;;;5047793;28;20441;-76
2022/01/19 03:39:59;;;;;;;24.37;21.77;;;-0.20;99.90;;;;;;5046871;28;20490;-76
2022/01/19 03:42:29;;;;;;;24.67;22.07;;;-0.20;99.90;;;;;;5052805;28;20571;-79
2022/01/19 03:44:56;;;;;;;25.50;23.03;;;-0.30;99.90;;;;;;5052505;28;20453;-79
2022/01/19 03:47:26;;;;;;;21.10;18.90;;;-0.30;99.90;;;;;;5048979;28;20496;-81
2022/01/19 03:49:54;;;;;;;23.67;19.37;;;-0.30;99.90;;;;;;5056888;28;20447;-78
2022/01/19 03:52:21;;;;;;;21.90;18.90;;;-0.30;99.90;;;;;;5034885;28;20830;-79
2022/01/19 03:54:48;;;;;;;21.57;19.03;;;-0.30;99.90;;;;;;5034796;28;20445;-78
2022/01/19 03:57:16;;;;;;;21.03;18.87;;;-0.20;99.90;;;;;;5034605;28;20492;-78
2022/01/19 03:59:44;;;;;;;23.00;19.53;;;-0.20;99.90;;;;;;5034634;28;21035;-78
2022/01/19 04:02:11;;;;;;;22.77;20.03;;;-0.20;99.90;;;;;;5036896;28;20496;-78
2022/01/19 04:04:43;;;;;;;25.63;20.57;;;-0.10;99.90;;;;;;5068051;28;20955;-78
2022/01/19 04:07:10;;;;;;;27.10;21.17;;;0.00;99.90;;;;;;5065767;28;20451;-78
2022/01/19 04:09:40;;;;;;;25.10;21.03;;;0.00;99.90;;;;;;5053374;28;21052;-78
2022/01/19 04:12:10;;;;;;;24.50;22.00;;;0.00;99.90;;;;;;5032774;28;20470;-78
2022/01/19 04:14:39;;;;;;;25.17;22.13;;;0.20;99.90;;;;;;5033204;28;20442;-78
2022/01/19 04:17:07;;;;;;;24.17;21.67;;;0.30;99.90;;;;;;5030728;28;20450;-77
2022/01/19 04:19:42;;;;;;;23.17;20.87;;;0.50;99.90;;;;;;5052157;28;20424;-77
2022/01/19 04:22:17;;;;;;;24.57;22.10;;;0.60;99.90;;;;;;5051664;28;21003;-77
2022/01/19 04:24:45;;;;;;;23.53;21.10;;;0.60;99.90;;;;;;5047829;28;20446;-77
2022/01/19 04:30:04;;;;;;;21.70;19.60;;;0.80;99.90;;;;;;5045507;28;20468;-77
2022/01/19 04:32:43;;;;;;;21.30;19.20;;;0.90;99.90;;;;;;5044596;28;20461;-77
2022/01/19 04:35:14;;;;;;;24.83;22.40;;;1.00;99.90;;;;;;5042128;28;20457;-77
2022/01/19 04:37:54;;;;;;;24.87;21.57;;;1.10;99.90;;;;;;5049830;28;20447;-78
2022/01/19 05:03:15;;;;;;;19.20;17.20;;;1.30;99.90;;;;;;5004860;28;20465;-77
2022/01/19 05:06:00;;;;;;;20.00;18.00;;;1.40;99.90;;;;;;5049856;28;20816;-78
2022/01/19 05:08:49;;;;;;;23.63;21.23;;;1.40;99.90;;;;;;5047210;28;20993;-77
2022/01/19 05:14:01;;;;;;;21.20;19.10;;;1.40;99.90;;;;;;5048129;28;20457;-77
2022/01/19 05:16:30;;;;;;;24.50;22.07;;;1.50;99.90;;;;;;5042403;28;20446;-77
2022/01/19 05:18:59;;;;;;;23.63;21.33;;;1.50;99.90;;;;;;5049963;28;20958;-76
2022/01/19 05:21:26;;;;;;;23.50;21.40;;;1.50;99.90;;;;;;5049621;28;20443;-76
2022/01/19 05:24:08;;;;;;;22.90;20.60;;;1.50;99.90;;;;;;5066710;28;20466;-77
2022/01/19 05:26:37;;;;;;;21.87;19.87;;;1.50;99.90;;;;;;5052804;28;20970;-76
2022/01/19 05:29:06;;;;;;;24.00;21.60;;;1.50;99.90;;;;;;5054797;28;20470;-77
2022/01/19 05:31:36;;;;;;;24.03;21.73;;;1.50;99.90;;;;;;5044606;28;20474;-76
2022/01/19 05:34:05;;;;;;;23.07;20.63;;;1.60;99.90;;;;;;5051060;28;20474;-76
2022/01/19 05:36:49;;;;;;;22.67;20.53;;;1.60;99.90;;;;;;5050014;28;20445;-77
2022/01/19 05:39:37;;;;;;;23.80;21.57;;;1.60;99.90;;;;;;5053781;28;20424;-77
2022/01/19 05:42:15;;;;;;;24.67;22.17;;;1.60;99.90;;;;;;5053886;28;20477;-77
2022/01/19 05:44:43;;;;;;;24.13;21.57;;;1.60;99.90;;;;;;5048797;28;20451;-77
2022/01/19 05:47:11;;;;;;;24.07;21.90;;;1.60;99.90;;;;;;5049927;28;20452;-76
2022/01/19 05:49:39;;;;;;;23.53;21.23;;;1.70;99.90;;;;;;5055475;28;20465;-77
2022/01/19 05:52:07;;;;;;;23.83;21.50;;;1.70;99.90;;;;;;5054522;28;20523;-75
2022/01/19 05:54:38;;;;;;;23.77;21.67;;;1.70;99.90;;;;;;5051589;28;20538;-76
2022/01/19 05:57:05;;;;;;;23.27;21.20;;;1.60;99.90;;;;;;5049915;28;20458;-75
2022/01/19 05:59:40;;;;;;;24.00;21.70;;;1.60;99.90;;;;;;5048767;28;20469;-76
2022/01/19 06:02:07;;;;;;;24.40;22.07;;;1.50;99.90;;;;;;5054486;28;20506;-77
2022/01/19 06:04:34;;;;;;;24.47;22.00;;;1.40;99.90;;;;;;5052260;28;20454;-75
2022/01/19 06:07:05;;;;;;;23.00;20.90;;;1.40;99.90;;;;;;5067529;28;20856;-75
2022/01/19 06:10:04;;;;;;;23.57;21.37;;;1.30;99.90;;;;;;5064458;28;20477;-76
2022/01/19 06:12:35;;;;;;;22.50;20.43;;;1.10;99.90;;;;;;5044744;28;20839;-76
2022/01/19 06:15:04;;;;;;;23.53;21.37;;;1.10;99.90;;;;;;5048534;28;20448;-77
2022/01/19 06:17:31;;;;;;;24.17;21.83;;;1.00;99.90;;;;;;5054616;28;20444;-77
2022/01/19 06:19:59;;;;;;;22.60;20.57;;;0.90;99.90;;;;;;5051863;28;20451;-76
2022/01/19 06:22:28;;;;;;;23.13;21.03;;;0.90;99.90;;;;;;5050148;28;20976;-76
2022/01/19 06:24:57;;;;;;;24.20;22.03;;;0.80;99.90;;;;;;5050139;28;20461;-76
2022/01/19 06:27:24;;;;;;;25.07;22.20;;;0.80;99.90;;;;;;5049611;28;20434;-76
2022/01/19 06:29:52;;;;;;;24.33;22.00;;;0.70;99.90;;;;;;5050952;28;20467;-76
2022/01/19 06:32:19;;;;;;;24.53;22.13;;;0.70;99.90;;;;;;5053232;28;20469;-76
2022/01/19 06:34:45;;;;;;;24.50;22.00;;;0.60;99.90;;;;;;5049708;28;20503;-75
2022/01/19 06:37:21;;;;;;;23.20;21.10;;;0.50;99.90;;;;;;5064733;28;20531;-75
2022/01/19 06:40:14;;;;;;;23.67;21.37;;;0.40;99.90;;;;;;5064530;28;20452;-76
2022/01/19 06:42:41;;;;;;;23.90;21.60;;;0.40;99.90;;;;;;5051503;28;20461;-76
2022/01/19 06:45:10;;;;;;;25.03;22.60;;;0.40;99.90;;;;;;5051195;28;20466;-76
2022/01/19 06:47:37;;;;;;;23.40;21.30;;;0.30;99.90;;;;;;5051359;28;20443;-76
2022/01/19 06:50:06;;;;;;;23.40;21.23;;;0.30;99.90;;;;;;5049421;28;20491;-76
2022/01/19 06:52:36;;;;;;;24.83;22.33;;;0.20;99.90;;;;;;5052517;28;20453;-76
2022/01/19 06:55:04;;;;;;;25.77;23.30;;;0.20;99.90;;;;;;5051506;28;20977;-77
2022/01/19 06:57:32;;;;;;;26.33;22.73;;;0.20;99.90;;;;;;5048281;28;20957;-76
2022/01/19 07:00:19;;;;;;;24.33;22.10;;;0.20;99.90;;;;;;5065072;28;20528;-76
2022/01/19 07:03:19;;;;;;;24.83;22.37;;;0.10;99.90;;;;;;5051180;28;20480;-75
2022/01/19 07:05:48;;;;;;;23.37;21.30;;;0.10;99.90;;;;;;5051130;28;20445;-76
2022/01/19 07:08:34;;;;;;;22.77;20.47;;;0.10;99.90;;;;;;5062269;28;20570;-76
2022/01/19 07:11:01;;;;;;;22.97;20.50;;;0.00;99.90;;;;;;5050992;28;20464;-77
2022/01/19 07:13:29;;;;;;;22.87;20.67;;;-0.10;99.90;;;;;;5049164;28;20476;-73
2022/01/19 07:15:56;;;;;;;25.00;22.47;;;-0.10;99.90;;;;;;5049086;28;20540;-74
2022/01/19 07:18:24;;;;;;;25.83;23.20;;;-0.10;99.90;;;;;;5052200;28;20836;-74
2022/01/19 07:20:52;;;;;;;24.30;21.90;;;-0.20;99.90;;;;;;5049622;28;20445;-75
2022/01/19 07:23:22;;;;;;;23.87;21.47;;;-0.20;99.90;;;;;;5046495;28;20488;-75
2022/01/19 07:25:49;;;;;;;24.43;21.87;;;-0.20;99.90;;;;;;5051226;28;20965;-74
2022/01/19 07:28:16;;;;;;;26.00;23.30;;;-0.20;99.90;;;;;;5049979;28;21035;-74
2022/01/19 07:30:47;;;;;;;26.03;23.53;;;-0.20;99.90;;;;;;5049130;28;20482;-74
2022/01/19 07:33:14;;;;;;;24.60;22.03;;;-0.20;99.90;;;;;;5047793;28;20474;-75
2022/01/19 07:35:42;;;;;;;25.83;23.10;;;-0.20;99.90;;;;;;5049886;28;20442;-75
2022/01/19 07:38:09;;;;;;;26.03;23.33;;;-0.20;99.90;;;;;;5051343;28;20499;-75
2022/01/19 07:40:36;;;;;;;25.57;22.93;;;-0.20;99.90;;;;;;5047243;28;20441;-75
2022/01/19 07:43:03;;;;;;;26.53;23.80;;;-0.20;99.90;;;;;;5064166;28;20452;-75
2022/01/19 07:46:03;;;;;;;25.27;22.77;;;-0.10;99.90;;;;;;5063791;28;20965;-76
2022/01/19 07:48:48;;;;;;;24.33;21.93;;;-0.10;99.90;;;;;;5059449;28;20642;-75
2022/01/19 07:51:44;;;;;;;26.30;23.63;;;0.00;99.90;;;;;;5033584;28;20453;-75
2022/01/19 07:54:22;;;;;;;26.23;23.53;;;0.00;99.90;;;;;;5047864;28;20490;-75
2022/01/19 07:57:02;;;;;;;25.57;23.00;;;0.00;99.90;;;;;;5047490;28;20492;-75
2022/01/19 07:59:48;;;;;;;26.27;23.40;;;0.00;99.90;;;;;;5066705;28;20799;-75
2022/01/19 08:02:16;;;;;;;27.53;23.30;;;0.10;99.90;;;;;;5050236;28;20468;-75
2022/01/19 08:04:46;;;;;;;25.57;22.93;;;0.20;99.90;;;;;;5064421;28;20433;-75
2022/01/19 08:07:17;;;;;;;27.93;25.13;;;0.40;99.90;;;;;;5052095;28;20449;-75
2022/01/19 08:09:44;;;;;;;26.23;23.57;;;0.70;99.90;;;;;;5048906;28;20500;-75
2022/01/19 08:12:11;;;;;;;28.43;24.23;;;1.00;99.90;;;;;;5047415;28;20501;-75
2022/01/19 08:14:43;;;;;;;27.37;24.57;;;1.20;99.90;;;;;;5047052;28;20464;-75
2022/01/19 08:17:11;;;;;;;25.57;23.07;;;1.50;99.90;;;;;;5046117;28;20452;-75
2022/01/19 08:19:41;;;;;;;26.37;23.60;;;1.80;99.90;;;;;;5049308;28;20517;-75
2022/01/19 08:22:10;;;;;;;27.17;24.47;;;2.00;99.90;;;;;;5076569;22;20537;-77
2022/01/19 08:24:50;;;;;;;27.00;24.40;;;2.20;99.90;;;;;;5062166;28;20454;-79
2022/01/19 08:27:18;;;;;;;26.53;23.93;;;2.40;99.90;;;;;;5040537;28;20762;-77
2022/01/19 08:29:49;;;;;;;25.93;23.50;;;2.70;99.90;;;;;;5061572;28;20872;-78
2022/01/19 08:32:23;;;;;;;25.53;23.23;;;3.00;99.90;;;;;;5061277;28;20456;-77
2022/01/19 08:35:12;;;;;;;25.93;23.70;;;3.40;99.90;;;;;;5034179;28;20449;-78
2022/01/19 08:38:08;;;;;;;29.43;26.43;;;3.80;99.90;;;;;;5048719;28;20925;-78
2022/01/19 08:40:42;;;;;;;24.97;22.37;;;4.30;99.90;;;;;;5024755;28;20473;-77
2022/01/19 08:43:17;;;;;;;27.67;17.97;;;4.80;99.90;;;;;;5029626;28;20229;-78
2022/01/19 08:45:45;;;;;;;24.30;17.83;;;5.10;99.90;;;;;;5028800;28;20283;-78
2022/01/19 08:48:14;;;;;;;26.70;17.63;;;5.40;99.90;;;;;;5019636;28;20266;-78
2022/01/19 08:50:51;;;;;;;21.10;16.10;;;5.60;99.90;;;;;;5025492;28;20301;-78
2022/01/19 08:53:29;;;;;;;24.53;22.07;;;5.50;99.90;;;;;;5023163;28;20842;-78
2022/01/19 08:56:11;;;;;;;22.97;17.13;;;5.40;99.90;;;;;;5032308;28;20223;-77
2022/01/19 08:58:39;;;;;;;19.70;15.03;;;5.50;99.90;;;;;;5049849;28;20246;-78
2022/01/19 09:01:06;;;;;;;17.00;13.53;;;5.50;99.90;;;;;;5051405;28;20531;-78
2022/01/19 09:03:33;;;;;;;18.60;12.80;;;5.40;99.90;;;;;;5056535;28;20215;-78
2022/01/19 09:06:01;;;;;;;20.60;14.70;;;5.50;99.90;;;;;;5054692;28;20191;-77
2022/01/19 09:08:30;;;;;;;18.27;15.17;;;5.60;99.90;;;;;;5042664;28;20225;-77
2022/01/19 09:10:58;;;;;;;22.97;17.67;;;5.60;99.90;;;;;;5041549;28;20234;-80
2022/01/19 09:13:25;;;;;;;19.10;14.90;;;5.60;99.90;;;;;;5058778;28;20272;-78
2022/01/19 09:15:52;;;;;;;18.87;16.87;;;5.60;99.90;;;;;;5058462;28;20218;-79
2022/01/19 09:18:19;;;;;;;22.37;18.57;;;5.50;99.90;;;;;;5041183;28;20205;-78
2022/01/19 09:20:46;;;;;;;22.07;19.93;;;5.40;99.90;;;;;;5039964;28;20623;-78
2022/01/19 09:23:14;;;;;;;17.43;15.53;;;5.30;99.90;;;;;;5058064;28;20218;-78
2022/01/19 09:25:41;;;;;;;16.63;13.97;;;5.20;99.90;;;;;;5037425;28;20617;-78
2022/01/19 09:28:09;;;;;;;20.23;18.43;;;5.20;99.90;;;;;;5054015;28;20192;-78
2022/01/19 09:30:38;;;;;;;21.63;19.77;;;5.10;99.90;;;;;;5040045;28;20261;-79
2022/01/19 09:33:09;;;;;;;19.30;17.60;;;5.10;99.90;;;;;;5036953;28;20219;-77
2022/01/19 09:35:53;;;;;;;18.77;17.10;;;5.00;99.90;;;;;;5053127;28;20250;-77
2022/01/19 09:38:25;;;;;;;18.13;16.53;;;4.80;99.90;;;;;;5052351;28;20199;-77
2022/01/19 09:40:52;;;;;;;17.40;16.00;;;4.70;99.90;;;;;;5054356;28;20191;-82
2022/01/19 09:43:22;;;;;;;18.70;16.83;;;4.50;99.90;;;;;;5052143;28;20227;-78
2022/01/19 09:45:49;;;;;;;17.97;16.40;;;4.40;99.90;;;;;;5036108;28;20346;-78
2022/01/19 09:48:16;;;;;;;18.47;16.47;;;4.40;99.90;;;;;;5055738;28;20199;-77
2022/01/19 09:50:42;;;;;;;18.00;16.50;;;4.30;99.90;;;;;;5034620;28;20215;-77
2022/01/19 09:53:10;;;;;;;18.80;17.10;;;4.30;99.90;;;;;;5033652;28;20267;-77
2022/01/19 09:55:39;;;;;;;17.60;16.20;;;4.20;99.90;;;;;;5050413;28;20191;-78
2022/01/19 09:58:06;;;;;;;18.10;16.50;;;4.20;99.90;;;;;;5046419;28;20192;-77
2022/01/19 10:00:33;;;;;;;17.97;16.33;;;4.30;99.90;;;;;;5033972;28;20200;-75
2022/01/19 10:03:15;;;;;;;18.73;16.77;;;4.30;99.90;;;;;;5050167;28;20228;-77
2022/01/19 10:06:01;;;;;;;17.10;15.70;;;4.30;99.90;;;;;;5041425;28;20211;-77
2022/01/19 10:08:33;;;;;;;16.77;15.37;;;4.30;99.90;;;;;;5037920;28;20604;-77
2022/01/19 10:11:15;;;;;;;16.50;15.17;;;4.40;99.90;;;;;;5039410;28;20215;-79
2022/01/19 10:19:19;;;;;;;17.60;16.03;;;4.50;99.90;;;;;;5038838;28;20201;-78
2022/01/19 10:22:11;;;;;;;17.37;15.97;;;4.40;99.90;;;;;;5055430;28;20245;-78
2022/01/19 10:24:53;;;;;;;18.20;16.60;;;4.50;99.90;;;;;;5033360;28;20200;-78
2022/01/19 10:27:43;;;;;;;17.20;15.50;;;4.50;99.90;;;;;;5044225;28;20203;-77
2022/01/19 10:30:25;;;;;;;17.27;15.77;;;4.50;99.90;;;;;;5042116;28;20231;-78
2022/01/19 10:32:55;;;;;;;18.67;17.03;;;4.60;99.90;;;;;;5046141;28;20253;-77
2022/01/19 10:35:26;;;;;;;18.20;16.63;;;4.50;99.90;;;;;;5033507;28;20211;-76
2022/01/19 10:38:15;;;;;;;18.20;16.63;;;4.50;99.90;;;;;;5030116;28;20207;-78
2022/01/19 10:40:45;;;;;;;16.67;15.37;;;4.50;99.90;;;;;;5038228;28;20226;-78
2022/01/19 10:43:31;;;;;;;18.77;16.87;;;4.60;99.90;;;;;;5050832;28;20216;-78
2022/01/19 10:46:00;;;;;;;17.17;15.57;;;4.60;99.90;;;;;;5051844;28;20543;-78
2022/01/19 10:48:32;;;;;;;18.87;17.17;;;4.70;99.90;;;;;;5054611;28;20194;-77
2022/01/19 10:51:07;;;;;;;18.07;16.37;;;4.70;99.90;;;;;;5052324;28;20227;-77
2022/01/19 10:53:34;;;;;;;17.93;16.43;;;4.80;99.90;;;;;;5048829;28;20245;-77
2022/01/19 10:56:02;;;;;;;18.03;16.53;;;4.80;99.90;;;;;;5049242;28;20192;-78
2022/01/19 10:58:30;;;;;;;17.23;15.70;;;4.80;99.90;;;;;;5031953;28;20223;-77
2022/01/19 11:00:57;;;;;;;17.93;16.43;;;4.80;99.90;;;;;;5034745;28;20664;-78
2022/01/19 11:03:26;;;;;;;18.33;16.63;;;4.80;99.90;;;;;;5033121;28;20223;-77
2022/01/19 11:05:54;;;;;;;17.93;16.43;;;4.90;99.90;;;;;;5051963;28;20278;-79
2022/01/19 11:08:24;;;;;;;16.97;15.57;;;4.90;99.90;;;;;;5053911;28;20195;-78
2022/01/19 11:10:53;;;;;;;16.50;15.10;;;5.00;99.90;;;;;;5028184;28;20297;-79
2022/01/19 11:13:29;;;;;;;17.30;15.93;;;5.00;99.90;;;;;;5031112;28;20223;-76
2022/01/19 11:15:59;;;;;;;16.50;15.10;;;5.10;99.90;;;;;;5046693;28;20282;-77
2022/01/19 11:18:29;;;;;;;16.40;14.80;;;5.20;99.90;;;;;;5046186;28;20191;-76
2022/01/19 11:20:58;;;;;;;16.63;15.20;;;5.30;99.90;;;;;;5046487;28;20184;-77
2022/01/19 11:23:32;;;;;;;16.37;14.97;;;5.30;99.90;;;;;;5050551;28;20231;-77
2022/01/19 11:26:02;;;;;;;15.80;14.50;;;5.40;99.90;;;;;;5047350;28;20192;-77
2022/01/19 11:28:34;;;;;;;15.77;14.57;;;5.50;99.90;;;;;;5019862;28;20199;-77
2022/01/19 11:31:05;;;;;;;16.80;15.40;;;5.60;99.90;;;;;;5048418;28;20211;-78
2022/01/19 11:33:33;;;;;;;16.47;15.03;;;5.60;99.90;;;;;;5022551;28;20230;-77
2022/01/19 11:36:02;;;;;;;15.77;14.43;;;5.70;99.90;;;;;;5032209;28;20192;-79
2022/01/19 11:38:38;;;;;;;16.80;15.20;;;5.70;99.90;;;;;;5037221;28;20195;-77
2022/01/19 11:41:38;;;;;;;16.43;15.03;;;5.70;99.90;;;;;;5052010;28;20187;-79
2022/01/19 11:44:06;;;;;;;16.43;15.00;;;5.80;99.90;;;;;;5049292;28;20806;-76
2022/01/19 11:46:39;;;;;;;15.63;14.43;;;5.90;99.90;;;;;;5029836;28;20664;-77
2022/01/19 11:49:08;;;;;;;17.80;14.83;;;5.90;99.90;;;;;;5050587;28;20341;-78
2022/01/19 11:51:36;;;;;;;16.87;15.37;;;5.90;99.90;;;;;;5051391;28;20219;-78
2022/01/19 11:54:07;;;;;;;16.63;15.10;;;6.00;99.90;;;;;;5051334;28;20222;-79
2022/01/19 11:56:54;;;;;;;16.03;14.70;;;6.00;99.90;;;;;;5029954;28;20200;-77
2022/01/19 11:59:21;;;;;;;15.27;14.10;;;6.10;99.90;;;;;;5027855;28;20552;-76
2022/01/19 12:01:50;;;;;;;14.93;13.83;;;6.20;99.90;;;;;;5048570;28;20219;-78
2022/01/19 12:04:19;;;;;;;15.23;14.03;;;6.20;99.90;;;;;;5053536;28;20203;-78
2022/01/19 12:06:47;;;;;;;15.37;13.93;;;6.20;99.90;;;;;;5028253;28;20203;-78
2022/01/19 12:09:14;;;;;;;15.60;14.30;;;6.30;99.90;;;;;;5050095;28;20196;-78
2022/01/19 12:11:48;;;;;;;15.53;14.17;;;6.30;99.90;;;;;;5034791;28;20207;-77
2022/01/19 12:14:19;;;;;;;15.00;13.60;;;6.40;99.90;;;;;;5050431;28;20211;-77
2022/01/19 12:16:59;;;;;;;15.23;14.03;;;6.40;99.90;;;;;;5047161;28;20674;-77
2022/01/19 12:19:28;;;;;;;15.43;14.13;;;6.50;99.90;;;;;;5029991;28;20199;-76
2022/01/19 12:22:02;;;;;;;16.00;14.60;;;6.50;99.90;;;;;;5050020;28;20195;-78
2022/01/19 12:24:32;;;;;;;15.90;14.60;;;6.50;99.90;;;;;;5015208;28;20219;-77
2022/01/19 12:27:08;;;;;;;15.70;14.40;;;6.50;99.90;;;;;;5030534;28;20220;-79
2022/01/19 12:29:49;;;;;;;15.73;14.43;;;6.60;99.90;;;;;;5044258;28;20201;-77
2022/01/19 12:32:45;;;;;;;17.47;15.83;;;6.50;99.90;;;;;;5050021;28;20196;-76
2022/01/19 12:35:31;;;;;;;16.60;15.10;;;6.50;99.90;;;;;;5048425;28;20275;-78
2022/01/19 12:37:59;;;;;;;16.80;15.30;;;6.50;99.90;;;;;;5050217;28;20197;-78
2022/01/19 12:40:36;;;;;;;16.90;15.40;;;6.60;99.90;;;;;;5055544;28;20188;-77
2022/01/19 12:43:06;;;;;;;16.70;15.20;;;6.60;99.90;;;;;;5047710;28;20208;-78
2022/01/19 12:45:36;;;;;;;17.07;15.63;;;6.60;99.90;;;;;;5046487;28;20200;-77
2022/01/19 12:48:05;;;;;;;16.40;15.00;;;6.60;99.90;;;;;;5031939;28;20200;-77
2022/01/19 12:50:40;;;;;;;16.43;14.93;;;6.70;99.90;;;;;;5037278;28;20218;-78
2022/01/19 12:53:11;;;;;;;16.43;15.03;;;6.70;99.90;;;;;;5046004;28;20216;-77
2022/01/19 12:55:43;;;;;;;17.57;16.07;;;6.70;99.90;;;;;;5038190;28;20544;-77
2022/01/19 12:58:13;;;;;;;17.00;15.40;;;6.80;99.90;;;;;;5031649;28;20201;-78
2022/01/19 13:00:41;;;;;;;17.23;15.40;;;6.80;99.90;;;;;;5052202;28;20191;-78
2022/01/19 13:03:20;;;;;;;16.80;15.30;;;6.80;99.90;;;;;;5034605;28;20216;-78
2022/01/19 13:05:50;;;;;;;16.30;14.87;;;6.80;99.90;;;;;;5026544;28;20218;-76
2022/01/19 13:08:27;;;;;;;18.47;15.87;;;6.80;99.90;;;;;;5045029;28;20185;-77
2022/01/19 13:11:02;;;;;;;17.00;15.40;;;6.80;99.90;;;;;;5048715;28;20250;-78
2022/01/19 13:13:29;;;;;;;17.20;15.60;;;6.80;99.90;;;;;;5041435;28;20212;-78
2022/01/19 13:15:58;;;;;;;18.93;17.20;;;6.90;99.90;;;;;;5046621;28;20575;-78
2022/01/19 13:18:34;;;;;;;18.00;16.50;;;6.90;99.90;;;;;;5046937;28;20205;-77
2022/01/19 13:21:03;;;;;;;17.77;16.17;;;6.80;99.90;;;;;;5029948;28;20191;-77
2022/01/19 13:23:31;;;;;;;18.40;16.77;;;6.80;99.90;;;;;;5050476;28;20216;-78
2022/01/19 13:26:03;;;;;;;18.33;16.67;;;6.80;99.90;;;;;;5049383;28;20196;-77
2022/01/19 13:28:31;;;;;;;17.10;15.50;;;6.80;99.90;;;;;;5026172;28;20704;-77
2022/01/19 13:31:10;;;;;;;17.00;15.30;;;6.90;99.90;;;;;;5030597;28;20236;-76
2022/01/19 13:33:39;;;;;;;16.60;15.13;;;6.80;99.90;;;;;;5042674;28;20290;-77
2022/01/19 13:36:06;;;;;;;16.27;14.77;;;6.70;99.90;;;;;;5031385;28;20661;-77
2022/01/19 13:38:34;;;;;;;17.10;15.40;;;6.70;99.90;;;;;;5048088;28;20197;-78
2022/01/19 13:41:06;;;;;;;18.57;16.70;;;6.60;99.90;;;;;;5047540;28;20223;-78
2022/01/19 13:43:35;;;;;;;17.97;16.27;;;6.60;99.90;;;;;;5035811;28;20699;-77
2022/01/19 13:46:12;;;;;;;17.37;15.53;;;6.60;99.90;;;;;;5045949;28;20188;-78
2022/01/19 13:48:44;;;;;;;17.97;16.27;;;6.60;99.90;;;;;;5023102;28;20287;-78
2022/01/19 13:51:14;;;;;;;18.17;16.47;;;6.60;99.90;;;;;;5054821;28;20710;-78
2022/01/19 13:53:43;;;;;;;16.37;14.97;;;6.60;99.90;;;;;;5051915;28;20211;-77
2022/01/19 13:56:14;;;;;;;18.37;16.57;;;6.60;99.90;;;;;;5032767;28;20573;-79
2022/01/19 13:58:43;;;;;;;17.23;15.63;;;6.60;99.90;;;;;;5051093;28;20224;-78
2022/01/19 14:01:13;;;;;;;18.07;16.33;;;6.50;99.90;;;;;;5051077;28;20196;-77
2022/01/19 14:03:50;;;;;;;19.23;17.37;;;6.40;99.90;;;;;;5053162;28;20577;-78
2022/01/19 14:06:22;;;;;;;17.80;16.00;;;6.30;99.90;;;;;;5053275;28;20193;-78
2022/01/19 14:08:49;;;;;;;19.00;17.10;;;6.10;99.90;;;;;;5033579;28;20195;-78